Du har inga inställningar för hoppväder.nu

Hoppväder.nu

Senast uppdaterat 13:28

UTC-tid

2022-11-27 kl. 12:28


Sol och måne

Solen går upp 8:46 och går ner 14:31 (beräknade cirkatider)
Nästa fullmåne blir om 11 dagar (2022-12-08)

METAR

ESNN (Sundsvall)
(8 minuter sedan)
ESNN 271220Z 35003KT 9999 BKN018 M01/M02 Q1028=



ESNK (Kramfors)
(8 minuter sedan)
ESNK 271220Z 18002KT 9999 OVC016 01/M00 Q1028=



ESNO (Örnsköldsvik)
(8 minuter sedan)
ESNO 271220Z 17003KT 9999 SCT009 OVC013 01/01 Q1027=



ESNY (Söderhamn)
ESNY NIL=



ESNZ (Östersund)
(8 minuter sedan)
ESNZ 271220Z 15011KT 9999 BKN006 01/01 Q1021=



TAF

ESNN (Sundsvall)
(58 minuter sedan)
ESNN 271130Z 2712/2715 VRB02KT 9000 BKN020 PROB40 2712/2715 BKN012=



ESNK (Kramfors)
ESNK



ESNO (Örnsköldsvik)
(58 minuter sedan)
ESNO 271130Z 2712/2718 16005KT 9999 OVC015 TEMPO 2712/2718 BKN009=



ESNY (Söderhamn)
ESNY



ESNZ (Östersund)
(58 minuter sedan)
ESNZ 271130Z 2712/2721 16012KT 9999 BKN004 TEMPO 2712/2721 FEW005 BKN010=





Kodnycklar till TAF och METAR






LHP

(Sundsvall är område se42d i Delområde 4)

Översikt

ÖVERSIKT FÖR OMRÅDE se4 UTFÄRDAD 270853

GÄLLANDE DEN 27 NOVEMBER 2022 MELLAN 09 OCH 17 UTC


Väderöversikt
En sydlig och fuktig luftström råder över Norrland. Lapplandsfjällen: Utbredda stratocumulus- eller stratusmoln. Frisk sydostlig vind. Södra Norrlandsfjällen: Utbredda stratocumulus- eller stratusmoln utom i Åredalen där det kan finnas en del luckor. Frisk till lokalt hård sydostlig vind. Dalafjällen: Utbredda stratusmoln och lokalt snöfall eller underkylt duggregn. Sydostlig vind.

Sikt under 5 kilometer eller molnbas under 1000 fot
09-13UTC: I hela området

Måttlig eller svår isbildning
09-13UTC: I hela området

Måttlig eller svår turbulens
Väntas inte förekomma under perioden


Delområde 4

PROGNOS FÖR OMRÅDE se42 UTFÄRDAD 270853
GÄLLANDE DEN 27 NOVEMBER 2022 MELLAN 09 OCH 17 UTC


Måttlig eller svår turbulens
09-17UTC: I hela området: Väntas inte förekomma under perioden

Måttlig eller svår isbildning
09-17UTC: Område se42e,se42d: måttlig isbildning 500ft - FL050, måttlig isbildning 1500ft - FL090
Område se42c,se42b,se42a: måttlig isbildning 1500ft - FL090


Sikt/Väder/Moln
09-17UTC: Område se42e,se42d: Sikt 3km - >8km i dis, duggregn. Molnbas <500ft - >2000ft.
Område se42c,se42b,se42a: Sikt >8km, lokalt 5km - 8km i duggregn. Molnbas >2000ft, lokalt 500ft - 1000ft.


Molnöversida
09-17UTC: I hela området: Molnöversida FL090.

CB/TCU Moln
09-17UTC: I hela området: Väntas inte förekomma under perioden

Nollgradersisoterm
09-17UTC: Område se42e: Noll grader SFC.
Område se42c,se42b,se42a,se42d: Noll grader SFC - 1000ft.


Vind vid marken
09-11UTC: Område se42e: S-SV/0-6 knop, byar upp till 14 knop.
Område se42c: SO/6-12 knop.
Område se42b: S/0-9 knop, byar upp till 12 knop.
Område se42d: SO-S/0-6 knop, byar upp till 14 knop.
Område se42a: S/0-7 knop, byar upp till 11 knop.

11-13UTC: Område se42e: Vrb/0-5 knop, byar upp till 15 knop.
Område se42b: Vrb/0-14 knop, byar upp till 17 knop.
Område se42a: SV/0-10 knop, byar upp till 13 knop.
Område se42d: SO-S/0-5 knop, byar upp till 15 knop.
Område se42c: SO-S/5-14 knop, byar upp till 18 knop.

13-15UTC: Område se42b: Vrb/0-13 knop, byar upp till 17 knop.
Område se42c: SO-S/0-13 knop, byar upp till 16 knop.
Område se42e: Lugnt.
Område se42d: SO/0-6 knop, byar upp till 15 knop.
Område se42a: Vrb/0-10 knop, byar upp till 13 knop.

15-17UTC: Område se42d: Vrb/0-4 knop, byar upp till 15 knop.
Område se42a: SO-S/0-13 knop, byar upp till 16 knop.
Område se42b: SO-S/0-13 knop, byar upp till 17 knop.
Område se42c: SO/5-13 knop, byar upp till 17 knop.
Område se42e: SV/0-4 knop.


Genomsnittlig vind och temperatur för området

2000ft:
09-11UTC: 160/10kt -1.
11-13UTC: 170/10kt -2.
13-15UTC: 160/9kt -2.
15-17UTC: 160/10kt -2.

FL050:
09-11UTC: 120/7kt -2.
11-13UTC: 140/8kt -3.
13-15UTC: 150/8kt -3.
15-17UTC: 150/10kt -3.

FL100:
09-13UTC: 150/7kt -9.
13-15UTC: 160/7kt -9.
15-17UTC: 160/6kt -9.

Lägsta QNH
09-13UTC: I hela området: 1024 hPa
13-15UTC: I hela området: 1023 hPa
15-17UTC: I hela området: 1024 hPa

OBS! endast utbredd måttlig eller svår isbildning och turbulens prognostiseras i LLF.
Avsaknad av isbildning och turbulens i prognosen utesluter inte förekomst av lätt isbildning och turbulens.
För indikation på lätt isbildning, var vänlig kontrollera om prognosen för molntopp ligger högre än nollgradersisotermen.
Förekomst av TCU eller CB medför alltid en risk för måttlig eller svår isbildning och turbulens även om det inte framgår explicit av prognosen.








Spotting

Hur fungerar spotthjälpen och Vindkartan?

Markvind är ca 0-3 m/s med byar på 8 m/s.
Vind på 600 m ca 5 m/s.
Vind på 1500 m ca 4 m/s.
Vind på 3000 m ca 4 m/s.
Feppen flyger ca 32 m/s över marken på finalen.
Du driver ca 162 m bakåt i frifall. (216 m)
Lämplig spot är 4 sekunder eller 130 m innan gropen.
(-2s eller -65 m)
För små grupper eller ensamhoppare bör man vänta 5-7 sekunder mellan grupperna.
För större grupper bör man vänta 9-11 sekunder mellan grupperna.


Vindkartan

Senast uppdaterad 13:28




All data kommer från LFV.se